createdAt,value
2023-01-17T00:01:16.508Z,6.30
2023-01-17T00:04:01.667Z,6.40
2023-01-17T00:06:46.795Z,6.40
2023-01-17T00:09:33.608Z,6.30
2023-01-17T00:12:02.086Z,6.30
2023-01-17T00:14:28.749Z,6.20
2023-01-17T00:16:55.383Z,6.20
2023-01-17T00:19:40.596Z,6.20
2023-01-17T00:22:30.411Z,6.20
2023-01-17T00:25:15.569Z,6.20
2023-01-17T00:27:42.109Z,6.20
2023-01-17T00:30:10.131Z,6.20
2023-01-17T00:32:36.716Z,6.20
2023-01-17T00:35:03.380Z,6.10
2023-01-17T00:37:29.968Z,6.10
2023-01-17T00:39:56.522Z,6.10
2023-01-17T00:42:23.128Z,6.10
2023-01-17T00:45:08.235Z,6.10
2023-01-17T00:47:55.661Z,6.10
2023-01-17T00:50:42.044Z,6.10
2023-01-17T00:53:27.220Z,6.10
2023-01-17T00:56:12.403Z,6.10
2023-01-17T00:58:57.547Z,6.10
2023-01-17T01:01:42.938Z,6.10
2023-01-17T01:04:28.114Z,6.10
2023-01-17T01:07:13.434Z,6.10
2023-01-17T01:09:58.631Z,6.10
2023-01-17T01:12:45.538Z,6.10
2023-01-17T01:15:30.942Z,6.10
2023-01-17T01:18:16.027Z,6.10
2023-01-17T01:21:01.077Z,6.10
2023-01-17T01:23:46.544Z,6.00
2023-01-17T01:26:31.728Z,6.10
2023-01-17T01:29:17.032Z,6.00
2023-01-17T01:32:02.187Z,6.10
2023-01-17T01:34:28.818Z,6.00
2023-01-17T01:36:55.499Z,6.00
2023-01-17T01:39:22.079Z,6.00
2023-01-17T01:41:48.718Z,6.10
2023-01-17T01:44:43.591Z,6.10
2023-01-17T01:47:14.091Z,6.10
2023-01-17T01:49:40.756Z,6.10
2023-01-17T01:52:10.299Z,6.10
2023-01-17T01:55:00.471Z,6.10
2023-01-17T01:57:32.305Z,6.10
2023-01-17T02:00:02.481Z,6.10
2023-01-17T02:02:30.978Z,6.10
2023-01-17T02:04:59.567Z,6.00
2023-01-17T02:07:32.714Z,6.00
2023-01-17T02:09:59.455Z,6.00
2023-01-17T02:12:26.812Z,6.00
2023-01-17T02:14:53.521Z,6.00
2023-01-17T02:17:58.012Z,5.90
2023-01-17T02:20:47.659Z,5.90
2023-01-17T02:23:44.266Z,5.80
2023-01-17T02:26:19.616Z,5.80
2023-01-17T02:29:06.982Z,5.80
2023-01-17T02:31:55.147Z,5.80
2023-01-17T02:34:52.557Z,5.70
2023-01-17T02:37:28.662Z,5.70
2023-01-17T02:40:06.760Z,5.70
2023-01-17T02:42:46.712Z,5.60
2023-01-17T02:45:20.682Z,5.60
2023-01-17T02:47:47.706Z,5.50
2023-01-17T02:50:16.926Z,5.50
2023-01-17T02:53:07.031Z,5.50
2023-01-17T02:55:52.199Z,5.50
2023-01-17T02:58:39.683Z,5.50
2023-01-17T03:01:27.209Z,5.40
2023-01-17T03:04:03.154Z,5.30
2023-01-17T03:06:40.331Z,5.30
2023-01-17T03:09:08.183Z,5.20
2023-01-17T03:11:34.816Z,5.10
2023-01-17T03:14:01.481Z,5.00
2023-01-17T03:16:31.389Z,4.90
2023-01-17T03:18:58.053Z,4.90
2023-01-17T03:21:24.709Z,4.80
2023-01-17T03:23:52.015Z,4.70
2023-01-17T03:26:18.746Z,4.70
2023-01-17T03:28:45.410Z,4.70
2023-01-17T03:31:16.961Z,4.60
2023-01-17T03:33:43.884Z,4.60
2023-01-17T03:36:11.881Z,4.60
2023-01-17T03:38:38.725Z,4.60
2023-01-17T03:41:06.215Z,4.60
2023-01-17T03:43:32.833Z,4.50
2023-01-17T03:46:04.472Z,4.60
2023-01-17T03:48:31.544Z,4.50
2023-01-17T03:50:58.163Z,4.40
2023-01-17T03:53:24.807Z,4.40
2023-01-17T03:55:51.660Z,4.30
2023-01-17T03:58:18.281Z,4.30
2023-01-17T04:00:44.844Z,4.30
2023-01-17T04:03:11.493Z,4.30
2023-01-17T04:05:38.120Z,4.30
2023-01-17T04:08:06.981Z,4.40
2023-01-17T04:10:33.755Z,4.50
2023-01-17T04:13:00.449Z,4.50
2023-01-17T04:15:27.095Z,4.60
2023-01-17T04:17:53.900Z,4.60
2023-01-17T04:20:38.121Z,4.70
2023-01-17T04:23:04.897Z,4.70
2023-01-17T04:25:31.888Z,4.70
2023-01-17T04:28:00.230Z,4.70
2023-01-17T04:30:28.299Z,4.70
2023-01-17T04:32:55.399Z,4.70
2023-01-17T04:35:22.318Z,4.70
2023-01-17T04:37:49.316Z,4.70
2023-01-17T04:40:16.220Z,4.70
2023-01-17T04:42:45.012Z,4.60
2023-01-17T04:45:12.440Z,4.60
2023-01-17T04:47:39.165Z,4.60
2023-01-17T04:50:07.968Z,4.60
2023-01-17T04:52:34.559Z,4.50
2023-01-17T04:55:01.186Z,4.50
2023-01-17T04:57:27.842Z,4.50
2023-01-17T04:59:54.439Z,4.50
2023-01-17T05:02:21.170Z,4.40
2023-01-17T05:04:47.931Z,4.30
2023-01-17T05:07:14.573Z,4.30
2023-01-17T05:09:41.230Z,4.30
2023-01-17T05:12:07.855Z,4.20
2023-01-17T05:14:34.512Z,4.10
2023-01-17T05:17:03.040Z,4.10
2023-01-17T05:19:29.845Z,4.10
2023-01-17T05:22:03.638Z,4.10
2023-01-17T05:24:31.292Z,4.00
2023-01-17T05:27:02.893Z,4.00
2023-01-17T05:29:30.366Z,4.00
2023-01-17T05:31:57.158Z,4.00
2023-01-17T05:34:23.848Z,4.00
2023-01-17T05:36:50.520Z,4.00
2023-01-17T05:39:17.142Z,3.90
2023-01-17T05:41:43.822Z,3.90
2023-01-17T05:44:10.593Z,3.80
2023-01-17T05:46:37.551Z,3.80
2023-01-17T05:49:04.249Z,3.80
2023-01-17T05:51:30.870Z,3.80
2023-01-17T05:53:57.468Z,3.80
2023-01-17T05:56:24.090Z,3.80
2023-01-17T05:58:50.702Z,3.80
2023-01-17T06:01:17.778Z,3.80
2023-01-17T06:03:44.449Z,3.80
2023-01-17T06:06:11.096Z,3.80
2023-01-17T06:08:37.708Z,3.80
2023-01-17T06:11:04.315Z,3.90
2023-01-17T06:13:30.950Z,3.90
2023-01-17T06:16:02.629Z,3.90
2023-01-17T06:18:29.747Z,3.90
2023-01-17T06:20:56.675Z,3.90
2023-01-17T06:23:24.442Z,3.90
2023-01-17T06:25:51.101Z,3.90
2023-01-17T06:28:20.882Z,3.90
2023-01-17T06:30:47.893Z,3.90
2023-01-17T06:33:14.819Z,3.90
2023-01-17T06:35:48.990Z,3.80
2023-01-17T06:38:15.794Z,3.80
2023-01-17T06:40:42.445Z,3.80
2023-01-17T06:43:09.138Z,3.80
2023-01-17T06:45:36.496Z,3.80
2023-01-17T06:48:05.064Z,3.80
2023-01-17T06:50:33.414Z,3.80
2023-01-17T06:53:05.724Z,3.90
2023-01-17T06:55:33.729Z,3.90
2023-01-17T06:58:02.630Z,3.90
2023-01-17T07:00:30.727Z,3.90
2023-01-17T07:02:57.469Z,3.90
2023-01-17T07:05:24.297Z,3.80
2023-01-17T07:07:51.247Z,3.80
2023-01-17T07:10:17.984Z,3.80
2023-01-17T07:12:44.691Z,3.70
2023-01-17T07:15:11.891Z,3.60
2023-01-17T07:17:38.704Z,3.70
2023-01-17T07:20:06.227Z,3.70
2023-01-17T07:22:32.890Z,3.70
2023-01-17T07:24:59.578Z,3.60
2023-01-17T07:27:27.728Z,3.50
2023-01-17T07:29:54.523Z,3.50
2023-01-17T07:32:21.291Z,3.40
2023-01-17T07:34:47.989Z,3.30
2023-01-17T07:37:15.485Z,3.30
2023-01-17T07:39:42.338Z,3.30
2023-01-17T07:42:09.251Z,3.20
2023-01-17T07:44:36.010Z,3.20
2023-01-17T07:47:04.170Z,3.10
2023-01-17T07:49:30.815Z,3.10
2023-01-17T07:51:57.613Z,3.10
2023-01-17T07:54:24.215Z,3.10
2023-01-17T07:56:50.863Z,3.10
2023-01-17T07:59:18.144Z,3.10
2023-01-17T08:01:44.886Z,3.20
2023-01-17T08:04:11.707Z,3.30
2023-01-17T08:06:41.994Z,3.40
2023-01-17T08:09:08.622Z,3.50
2023-01-17T08:11:35.196Z,3.60
2023-01-17T08:14:01.832Z,3.60
2023-01-17T08:16:29.628Z,3.70
2023-01-17T08:18:56.556Z,3.70
2023-01-17T08:21:23.566Z,3.80
2023-01-17T08:23:51.735Z,3.90
2023-01-17T08:26:23.333Z,3.90
2023-01-17T08:28:56.137Z,4.00
2023-01-17T08:31:23.816Z,4.00
2023-01-17T08:33:50.540Z,4.00
2023-01-17T08:36:17.297Z,4.20
2023-01-17T08:38:44.183Z,4.30
2023-01-17T08:41:10.785Z,4.40
2023-01-17T08:43:37.411Z,4.50
2023-01-17T08:46:06.163Z,4.50
2023-01-17T08:48:32.821Z,4.50
2023-01-17T08:51:03.463Z,4.50
2023-01-17T08:53:30.185Z,4.60
2023-01-17T08:56:01.376Z,4.70
2023-01-17T08:58:30.669Z,4.80
2023-01-17T09:01:05.805Z,4.80
2023-01-17T09:03:33.989Z,4.90
2023-01-17T09:06:12.453Z,5.00
2023-01-17T09:08:39.743Z,5.10
2023-01-17T09:11:12.053Z,5.10
2023-01-17T09:13:39.629Z,5.20
2023-01-17T09:16:06.917Z,5.30
2023-01-17T09:18:35.378Z,5.40
2023-01-17T09:21:13.230Z,5.50
2023-01-17T09:23:40.388Z,5.60
2023-01-17T09:26:07.119Z,5.70
2023-01-17T09:28:40.950Z,5.80
2023-01-17T09:31:08.300Z,6.00
2023-01-17T09:33:35.023Z,6.10
2023-01-17T09:36:04.216Z,6.20
2023-01-17T09:38:31.338Z,6.20
2023-01-17T09:40:58.519Z,6.30
2023-01-17T09:43:46.762Z,6.30
2023-01-17T09:46:22.561Z,6.30
2023-01-17T09:49:08.561Z,6.40
2023-01-17T09:51:36.495Z,6.40
2023-01-17T09:54:03.257Z,6.50
2023-01-17T09:56:38.559Z,6.70
2023-01-17T09:59:16.859Z,6.80
2023-01-17T10:01:59.095Z,6.90
2023-01-17T10:05:03.795Z,7.00
2023-01-17T10:07:50.765Z,7.10
2023-01-17T10:10:41.797Z,7.30
2023-01-17T10:13:33.502Z,7.40
2023-01-17T10:16:27.185Z,7.50
2023-01-17T10:19:10.694Z,7.70
2023-01-17T10:21:49.522Z,7.70
2023-01-17T10:24:58.696Z,7.70
2023-01-17T10:27:33.878Z,7.80
2023-01-17T10:30:03.337Z,7.80
2023-01-17T10:32:32.852Z,7.90
2023-01-17T10:35:14.211Z,8.00
2023-01-17T10:37:44.205Z,8.10
2023-01-17T10:40:17.434Z,8.30
2023-01-17T10:42:57.578Z,8.40
2023-01-17T10:45:28.792Z,8.50
2023-01-17T10:48:09.152Z,8.60
2023-01-17T10:50:50.824Z,8.70
2023-01-17T10:53:41.483Z,8.70
2023-01-17T10:56:09.386Z,8.70
2023-01-17T10:58:36.004Z,8.70
2023-01-17T11:01:13.699Z,8.80
2023-01-17T11:03:40.802Z,8.80
2023-01-17T11:06:17.958Z,8.90
2023-01-17T11:08:59.044Z,8.90
2023-01-17T11:11:32.024Z,9.00
2023-01-17T11:14:07.597Z,9.00
2023-01-17T11:16:35.776Z,9.00
2023-01-17T11:19:27.901Z,8.90
2023-01-17T11:21:58.542Z,8.90
2023-01-17T11:24:34.578Z,9.00
2023-01-17T11:27:03.790Z,8.80
2023-01-17T11:29:39.087Z,8.80
2023-01-17T11:32:34.317Z,8.80
2023-01-17T11:35:12.567Z,8.80
2023-01-17T11:37:40.882Z,8.80
2023-01-17T11:40:21.876Z,8.80
2023-01-17T11:43:03.179Z,8.90
2023-01-17T11:45:34.808Z,9.00
2023-01-17T11:48:07.888Z,9.00
2023-01-17T11:50:38.841Z,9.00
2023-01-17T11:53:28.611Z,9.10
2023-01-17T11:56:18.327Z,9.20
2023-01-17T11:58:47.161Z,9.40
2023-01-17T12:01:28.787Z,9.40
2023-01-17T12:04:20.073Z,9.50
2023-01-17T12:07:22.408Z,9.70
2023-01-17T12:10:12.566Z,10.00
2023-01-17T12:13:17.340Z,10.20
2023-01-17T12:16:37.708Z,10.30
2023-01-17T12:19:21.593Z,10.50
2023-01-17T12:22:19.393Z,10.60
2023-01-17T12:25:08.545Z,10.60
2023-01-17T12:27:49.773Z,10.60
2023-01-17T12:30:41.532Z,10.60
2023-01-17T12:33:27.827Z,10.70
2023-01-17T12:36:03.167Z,10.80
2023-01-17T12:38:39.299Z,10.80
2023-01-17T12:41:10.157Z,10.80
2023-01-17T12:43:40.347Z,10.80
2023-01-17T12:46:21.291Z,10.70
2023-01-17T12:48:52.433Z,10.70
2023-01-17T12:51:29.372Z,10.60
2023-01-17T12:54:15.700Z,10.50
2023-01-17T12:56:52.375Z,10.40
2023-01-17T12:59:25.138Z,10.30
2023-01-17T13:01:58.935Z,10.20
2023-01-17T13:04:58.694Z,10.10
2023-01-17T13:07:37.409Z,9.90
2023-01-17T13:10:44.350Z,9.70
2023-01-17T13:13:22.119Z,9.50
2023-01-17T13:15:52.200Z,9.30
2023-01-17T13:18:25.888Z,9.10
2023-01-17T13:21:27.081Z,9.00
2023-01-17T13:24:00.140Z,8.90
2023-01-17T13:26:55.730Z,8.80
2023-01-17T13:29:47.082Z,8.80
2023-01-17T13:33:01.572Z,8.70
2023-01-17T13:35:58.157Z,8.70
2023-01-17T13:38:57.432Z,8.70
2023-01-17T13:41:45.188Z,8.70
2023-01-17T13:44:24.168Z,8.60
2023-01-17T13:46:58.464Z,8.60
2023-01-17T13:49:36.926Z,8.60
2023-01-17T13:52:27.567Z,8.60
2023-01-17T13:55:00.901Z,8.50
2023-01-17T13:57:33.182Z,8.40
2023-01-17T14:00:22.002Z,8.30
2023-01-17T14:02:50.505Z,8.30
2023-01-17T14:05:29.146Z,8.20
2023-01-17T14:07:59.815Z,8.20
2023-01-17T14:10:29.435Z,8.10
2023-01-17T14:12:56.605Z,8.10
2023-01-17T14:15:27.312Z,8.00
2023-01-17T14:18:00.576Z,7.80
2023-01-17T14:20:27.397Z,7.70
2023-01-17T14:23:01.650Z,7.60
2023-01-17T14:25:30.727Z,7.50
2023-01-17T14:28:03.093Z,7.30
2023-01-17T14:30:37.981Z,7.10
2023-01-17T14:33:18.386Z,7.00
2023-01-17T14:36:24.825Z,6.90
2023-01-17T14:38:51.999Z,6.80
2023-01-17T14:41:24.810Z,6.70
2023-01-17T14:43:52.145Z,6.70
2023-01-17T14:46:32.246Z,6.60
2023-01-17T14:49:01.488Z,6.60
2023-01-17T14:51:28.728Z,6.60
2023-01-17T14:54:02.226Z,6.50
2023-01-17T14:56:30.088Z,6.50
2023-01-17T14:59:19.123Z,6.40
2023-01-17T15:02:06.609Z,6.40
2023-01-17T15:04:39.048Z,6.40
2023-01-17T15:07:06.744Z,6.30
2023-01-17T15:09:37.276Z,6.30
2023-01-17T15:12:04.815Z,6.30
2023-01-17T15:14:36.217Z,6.30
2023-01-17T15:17:19.390Z,6.30
2023-01-17T15:19:50.809Z,6.20
2023-01-17T15:22:18.632Z,6.20
2023-01-17T15:24:46.452Z,6.20
2023-01-17T15:27:15.139Z,6.10
2023-01-17T15:29:43.086Z,6.10
2023-01-17T15:32:31.151Z,6.00
2023-01-17T15:34:59.310Z,6.00
2023-01-17T15:37:37.493Z,6.00
2023-01-17T15:40:07.397Z,5.90
2023-01-17T15:42:38.465Z,5.90
2023-01-17T15:45:09.262Z,5.80
2023-01-17T15:47:41.130Z,5.80
2023-01-17T15:50:20.207Z,5.80
2023-01-17T15:52:58.800Z,5.70
2023-01-17T15:55:34.312Z,5.70
2023-01-17T15:58:02.200Z,5.60
2023-01-17T16:00:38.285Z,5.50
2023-01-17T16:03:22.692Z,5.40
2023-01-17T16:05:50.471Z,5.30
2023-01-17T16:08:22.773Z,5.30
2023-01-17T16:10:58.440Z,5.20
2023-01-17T16:13:25.226Z,5.20
2023-01-17T16:15:51.891Z,5.10
2023-01-17T16:18:26.187Z,5.20
2023-01-17T16:21:00.436Z,5.10
2023-01-17T16:23:28.179Z,5.10
2023-01-17T16:25:54.779Z,5.00
2023-01-17T16:28:21.377Z,5.00
2023-01-17T16:30:48.816Z,5.00
2023-01-17T16:33:15.822Z,4.90
2023-01-17T16:35:43.994Z,4.90
2023-01-17T16:38:13.960Z,4.80
2023-01-17T16:40:44.338Z,4.80
2023-01-17T16:43:12.229Z,4.80
2023-01-17T16:45:47.430Z,4.80
2023-01-17T16:48:14.591Z,4.70
2023-01-17T16:50:47.928Z,4.70
2023-01-17T16:53:15.194Z,4.70
2023-01-17T16:55:43.388Z,4.60
2023-01-17T16:58:10.572Z,4.60
2023-01-17T17:00:37.210Z,4.60
2023-01-17T17:03:03.869Z,4.60
2023-01-17T17:05:33.353Z,4.60
2023-01-17T17:08:01.036Z,4.50
2023-01-17T17:10:27.766Z,4.50
2023-01-17T17:12:54.854Z,4.40
2023-01-17T17:15:21.517Z,4.30
2023-01-17T17:17:48.367Z,4.30
2023-01-17T17:20:15.793Z,4.30
2023-01-17T17:22:44.428Z,4.20
2023-01-17T17:25:12.098Z,4.20
2023-01-17T17:27:38.894Z,4.20
2023-01-17T17:30:06.272Z,4.10
2023-01-17T17:32:32.955Z,4.10
2023-01-17T17:34:59.845Z,4.00
2023-01-17T17:37:29.002Z,4.10
2023-01-17T17:39:56.834Z,4.00
2023-01-17T17:42:23.658Z,4.00
2023-01-17T17:44:50.304Z,3.90
2023-01-17T17:47:17.774Z,3.90
2023-01-17T17:49:44.412Z,3.90
2023-01-17T17:52:11.089Z,3.80
2023-01-17T17:54:37.800Z,3.80
2023-01-17T17:57:04.693Z,3.80
2023-01-17T17:59:31.702Z,3.70
2023-01-17T18:01:59.630Z,3.70
2023-01-17T18:04:27.010Z,3.60
2023-01-17T18:06:59.906Z,3.60
2023-01-17T18:09:26.573Z,3.60
2023-01-17T18:11:53.484Z,3.60
2023-01-17T18:14:23.822Z,3.70
2023-01-17T18:16:51.399Z,3.70
2023-01-17T18:19:23.997Z,3.70
2023-01-17T18:21:51.758Z,3.70
2023-01-17T18:24:23.411Z,3.80
2023-01-17T18:26:51.790Z,3.80
2023-01-17T18:29:20.785Z,3.80
2023-01-17T18:31:52.289Z,3.80
2023-01-17T18:34:23.519Z,3.80
2023-01-17T18:36:51.636Z,3.80
2023-01-17T18:39:22.767Z,3.80
2023-01-17T18:41:49.498Z,3.80
2023-01-17T18:44:16.781Z,3.80
2023-01-17T18:46:43.598Z,3.80
2023-01-17T18:49:12.109Z,3.80
2023-01-17T18:51:38.970Z,3.80
2023-01-17T18:54:07.115Z,3.80
2023-01-17T18:56:34.353Z,3.80
2023-01-17T18:59:01.828Z,3.80
2023-01-17T19:01:30.724Z,3.80
2023-01-17T19:03:59.228Z,3.80
2023-01-17T19:06:31.585Z,3.80
2023-01-17T19:08:58.934Z,3.80
2023-01-17T19:11:27.155Z,3.70
2023-01-17T19:13:54.169Z,3.70
2023-01-17T19:16:28.020Z,3.70
2023-01-17T19:18:56.950Z,3.70
2023-01-17T19:21:27.486Z,3.70
2023-01-17T19:23:55.626Z,3.60
2023-01-17T19:26:27.094Z,3.60
2023-01-17T19:28:56.064Z,3.60
2023-01-17T19:31:25.802Z,3.60
2023-01-17T19:33:56.731Z,3.60
2023-01-17T19:36:26.647Z,3.60
2023-01-17T19:39:03.987Z,3.70
2023-01-17T19:41:31.825Z,3.70
2023-01-17T19:44:00.827Z,3.70
2023-01-17T19:46:27.867Z,3.80
2023-01-17T19:48:56.134Z,3.80
2023-01-17T19:51:23.799Z,3.80
2023-01-17T19:53:50.540Z,3.80
2023-01-17T19:56:19.573Z,3.80
2023-01-17T19:58:46.937Z,3.80
2023-01-17T20:01:15.914Z,3.90
2023-01-17T20:03:44.178Z,3.90
2023-01-17T20:06:13.116Z,3.90
2023-01-17T20:08:40.608Z,4.00
2023-01-17T20:11:10.642Z,3.90
2023-01-17T20:13:37.220Z,3.90
2023-01-17T20:16:05.924Z,3.90
2023-01-17T20:18:33.448Z,3.90
2023-01-17T20:21:10.203Z,3.90
2023-01-17T20:23:38.802Z,3.80
2023-01-17T20:26:05.941Z,3.80
2023-01-17T20:28:35.120Z,3.80
2023-01-17T20:31:13.441Z,3.80
2023-01-17T20:33:41.761Z,3.80
2023-01-17T20:36:11.483Z,3.80
2023-01-17T20:38:45.028Z,3.80
2023-01-17T20:41:20.266Z,3.80
2023-01-17T20:43:54.548Z,3.80
2023-01-17T20:46:23.253Z,3.90
2023-01-17T20:48:52.338Z,3.90
2023-01-17T20:51:20.029Z,4.00
2023-01-17T20:53:50.716Z,4.00
2023-01-17T20:56:18.055Z,4.10
2023-01-17T20:58:45.043Z,4.20
2023-01-17T21:01:19.981Z,4.20
2023-01-17T21:03:51.449Z,4.20
2023-01-17T21:06:19.351Z,4.30
2023-01-17T21:08:47.605Z,4.30
2023-01-17T21:11:20.694Z,4.30
2023-01-17T21:13:48.712Z,4.40
2023-01-17T21:16:20.214Z,4.40
2023-01-17T21:18:49.112Z,4.40
2023-01-17T21:21:21.979Z,4.50
2023-01-17T21:23:49.936Z,4.50
2023-01-17T21:26:17.768Z,4.50
2023-01-17T21:28:46.191Z,4.50
2023-01-17T21:31:24.362Z,4.50
2023-01-17T21:33:54.164Z,4.50
2023-01-17T21:36:23.225Z,4.40
2023-01-17T21:38:52.470Z,4.40
2023-01-17T21:41:25.508Z,4.30
2023-01-17T21:43:56.857Z,4.30
2023-01-17T21:46:24.294Z,4.20
2023-01-17T21:48:50.966Z,4.20
2023-01-17T21:51:19.465Z,4.20
2023-01-17T21:53:46.194Z,4.10
2023-01-17T21:56:32.929Z,4.00
2023-01-17T21:58:59.729Z,4.00
2023-01-17T22:01:32.413Z,3.90
2023-01-17T22:04:03.754Z,3.90
2023-01-17T22:06:34.337Z,3.90
2023-01-17T22:09:01.236Z,3.90
2023-01-17T22:11:30.245Z,3.90
2023-01-17T22:13:58.990Z,3.90
2023-01-17T22:16:26.018Z,3.80
2023-01-17T22:18:52.908Z,3.80
2023-01-17T22:21:22.224Z,3.80
2023-01-17T22:23:53.959Z,3.80
2023-01-17T22:26:22.346Z,3.80
2023-01-17T22:28:49.084Z,3.80
2023-01-17T22:31:20.725Z,3.80
2023-01-17T22:33:52.063Z,3.80
2023-01-17T22:36:20.090Z,3.80
2023-01-17T22:38:47.106Z,3.80
2023-01-17T22:41:16.679Z,3.80
2023-01-17T22:43:46.722Z,3.80
2023-01-17T22:46:16.475Z,3.80
2023-01-17T22:48:43.553Z,3.80
2023-01-17T22:51:12.966Z,3.90
2023-01-17T22:53:44.872Z,3.90
2023-01-17T22:56:15.110Z,3.90
2023-01-17T22:58:44.717Z,4.00
2023-01-17T23:01:20.471Z,4.00
2023-01-17T23:03:52.197Z,3.90
2023-01-17T23:06:21.691Z,3.90
2023-01-17T23:08:51.060Z,3.90
2023-01-17T23:11:43.364Z,3.90
2023-01-17T23:14:19.064Z,3.90
2023-01-17T23:17:07.367Z,3.80
2023-01-17T23:19:52.384Z,3.80
2023-01-17T23:22:24.473Z,3.80
2023-01-17T23:25:17.474Z,3.80
2023-01-17T23:28:06.064Z,3.70
2023-01-17T23:30:41.032Z,3.70
2023-01-17T23:33:10.464Z,3.70
2023-01-17T23:35:42.230Z,3.70
2023-01-17T23:38:25.773Z,3.70
2023-01-17T23:41:17.658Z,3.70
2023-01-17T23:43:44.530Z,3.70
2023-01-17T23:46:12.313Z,3.70
2023-01-17T23:48:38.906Z,3.70
2023-01-17T23:51:08.607Z,3.70
2023-01-17T23:53:37.224Z,3.60
2023-01-17T23:56:17.448Z,3.70
2023-01-17T23:58:44.301Z,3.70
